sensor_id;sensor_type;location;lat;lon;timestamp;pressure;altitude;pressure_sealevel;temperature;humidity
54666;BME280;40566;50.006;36.180;2023-06-22T00:01:38;100157.06;;;16.79;50.77
54666;BME280;40566;50.006;36.180;2023-06-22T00:06:39;100150.44;;;16.72;50.72
54666;BME280;40566;50.006;36.180;2023-06-22T00:11:39;100145.72;;;16.61;50.73
54666;BME280;40566;50.006;36.180;2023-06-22T00:16:40;100138.19;;;16.55;51.42
54666;BME280;40566;50.006;36.180;2023-06-22T00:21:43;100140.16;;;16.50;51.35
54666;BME280;40566;50.006;36.180;2023-06-22T00:26:48;100130.81;;;16.44;51.37
54666;BME280;40566;50.006;36.180;2023-06-22T00:31:49;100142.53;;;16.36;51.68
54666;BME280;40566;50.006;36.180;2023-06-22T00:36:49;100148.66;;;16.35;52.10
54666;BME280;40566;50.006;36.180;2023-06-22T00:41:52;100156.38;;;16.38;52.65
54666;BME280;40566;50.006;36.180;2023-06-22T00:46:52;100153.06;;;16.34;52.33
54666;BME280;40566;50.006;36.180;2023-06-22T00:51:53;100153.22;;;16.31;52.41
54666;BME280;40566;50.006;36.180;2023-06-22T00:56:54;100156.78;;;16.29;52.84
54666;BME280;40566;50.006;36.180;2023-06-22T01:01:56;100158.63;;;16.26;53.03
54666;BME280;40566;50.006;36.180;2023-06-22T01:12:07;100153.59;;;16.22;53.33
54666;BME280;40566;50.006;36.180;2023-06-22T01:17:11;100157.13;;;16.21;53.19
54666;BME280;40566;50.006;36.180;2023-06-22T01:22:16;100157.34;;;16.16;53.47
54666;BME280;40566;50.006;36.180;2023-06-22T01:27:32;100154.22;;;16.08;53.76
54666;BME280;40566;50.006;36.180;2023-06-22T01:32:34;100158.66;;;16.06;53.79
54666;BME280;40566;50.006;36.180;2023-06-22T01:37:37;100159.97;;;15.96;54.09
54666;BME280;40566;50.006;36.180;2023-06-22T01:42:38;100173.16;;;15.93;54.55
54666;BME280;40566;50.006;36.180;2023-06-22T01:47:39;100169.88;;;15.88;54.62
54666;BME280;40566;50.006;36.180;2023-06-22T01:52:40;100169.75;;;15.91;54.96
54666;BME280;40566;50.006;36.180;2023-06-22T01:57:41;100175.91;;;15.90;54.82
54666;BME280;40566;50.006;36.180;2023-06-22T02:02:58;100168.91;;;15.90;55.03
54666;BME280;40566;50.006;36.180;2023-06-22T02:08:09;100166.38;;;15.89;55.31
54666;BME280;40566;50.006;36.180;2023-06-22T02:13:10;100181.34;;;15.83;55.64
54666;BME280;40566;50.006;36.180;2023-06-22T02:18:12;100172.69;;;15.83;55.65
54666;BME280;40566;50.006;36.180;2023-06-22T02:23:13;100187.63;;;15.79;55.65
54666;BME280;40566;50.006;36.180;2023-06-22T02:28:13;100190.22;;;15.79;55.41
54666;BME280;40566;50.006;36.180;2023-06-22T02:33:14;100200.66;;;15.79;55.62
54666;BME280;40566;50.006;36.180;2023-06-22T02:38:15;100203.28;;;15.79;55.19
54666;BME280;40566;50.006;36.180;2023-06-22T02:43:15;100214.38;;;15.84;55.51
54666;BME280;40566;50.006;36.180;2023-06-22T02:48:16;100216.84;;;15.88;55.34
54666;BME280;40566;50.006;36.180;2023-06-22T02:53:17;100223.50;;;15.95;55.64
54666;BME280;40566;50.006;36.180;2023-06-22T02:58:17;100230.16;;;16.02;55.04
54666;BME280;40566;50.006;36.180;2023-06-22T03:03:18;100213.31;;;16.09;55.34
54666;BME280;40566;50.006;36.180;2023-06-22T03:08:19;100231.34;;;16.15;55.40
54666;BME280;40566;50.006;36.180;2023-06-22T03:13:20;100234.66;;;16.19;55.81
54666;BME280;40566;50.006;36.180;2023-06-22T03:18:20;100235.38;;;16.22;55.75
54666;BME280;40566;50.006;36.180;2023-06-22T03:23:22;100227.16;;;16.32;55.77
54666;BME280;40566;50.006;36.180;2023-06-22T03:28:23;100239.16;;;16.36;55.58
54666;BME280;40566;50.006;36.180;2023-06-22T03:33:23;100239.72;;;16.42;55.69
54666;BME280;40566;50.006;36.180;2023-06-22T03:38:24;100241.16;;;16.50;55.61
54666;BME280;40566;50.006;36.180;2023-06-22T03:43:25;100240.66;;;16.60;56.07
54666;BME280;40566;50.006;36.180;2023-06-22T03:48:25;100244.28;;;16.77;55.17
54666;BME280;40566;50.006;36.180;2023-06-22T03:53:26;100253.44;;;16.87;55.43
54666;BME280;40566;50.006;36.180;2023-06-22T03:58:26;100260.75;;;16.98;54.74
54666;BME280;40566;50.006;36.180;2023-06-22T04:03:28;100253.22;;;17.11;54.88
54666;BME280;40566;50.006;36.180;2023-06-22T04:08:29;100253.34;;;17.27;54.43
54666;BME280;40566;50.006;36.180;2023-06-22T04:13:30;100265.75;;;17.40;54.37
54666;BME280;40566;50.006;36.180;2023-06-22T04:18:30;100276.47;;;17.53;54.24
54666;BME280;40566;50.006;36.180;2023-06-22T04:23:31;100272.34;;;17.67;53.60
54666;BME280;40566;50.006;36.180;2023-06-22T04:28:31;100276.00;;;17.81;53.10
54666;BME280;40566;50.006;36.180;2023-06-22T04:33:35;100281.09;;;18.02;53.42
54666;BME280;40566;50.006;36.180;2023-06-22T04:38:36;100282.00;;;18.18;52.83
54666;BME280;40566;50.006;36.180;2023-06-22T04:43:36;100291.63;;;18.35;52.17
54666;BME280;40566;50.006;36.180;2023-06-22T04:48:37;100293.41;;;18.52;51.99
54666;BME280;40566;50.006;36.180;2023-06-22T04:53:37;100295.97;;;18.70;51.37
54666;BME280;40566;50.006;36.180;2023-06-22T04:58:41;100288.41;;;18.81;50.67
54666;BME280;40566;50.006;36.180;2023-06-22T05:03:42;100291.31;;;18.92;50.94
54666;BME280;40566;50.006;36.180;2023-06-22T05:08:42;100289.63;;;19.07;50.70
54666;BME280;40566;50.006;36.180;2023-06-22T05:13:43;100296.91;;;19.18;50.04
54666;BME280;40566;50.006;36.180;2023-06-22T05:18:44;100295.31;;;19.31;49.94
54666;BME280;40566;50.006;36.180;2023-06-22T05:23:44;100293.88;;;19.41;50.39
54666;BME280;40566;50.006;36.180;2023-06-22T05:28:45;100284.47;;;19.53;49.79
54666;BME280;40566;50.006;36.180;2023-06-22T05:33:47;100282.19;;;19.63;49.50
54666;BME280;40566;50.006;36.180;2023-06-22T05:38:48;100293.50;;;19.79;49.16
54666;BME280;40566;50.006;36.180;2023-06-22T05:43:48;100289.13;;;19.94;48.89
54666;BME280;40566;50.006;36.180;2023-06-22T05:48:49;100289.13;;;20.10;48.47
54666;BME280;40566;50.006;36.180;2023-06-22T05:53:49;100284.72;;;20.25;48.09
54666;BME280;40566;50.006;36.180;2023-06-22T05:58:50;100274.97;;;20.41;47.17
54666;BME280;40566;50.006;36.180;2023-06-22T06:03:52;100266.47;;;20.52;46.69
54666;BME280;40566;50.006;36.180;2023-06-22T06:08:53;100266.78;;;20.62;46.00
54666;BME280;40566;50.006;36.180;2023-06-22T06:13:53;100269.38;;;20.76;45.79
54666;BME280;40566;50.006;36.180;2023-06-22T06:18:54;100272.13;;;20.89;45.39
54666;BME280;40566;50.006;36.180;2023-06-22T06:23:56;100268.81;;;21.00;44.97
54666;BME280;40566;50.006;36.180;2023-06-22T06:28:56;100271.69;;;21.10;44.55
54666;BME280;40566;50.006;36.180;2023-06-22T06:33:57;100264.16;;;21.18;44.38
54666;BME280;40566;50.006;36.180;2023-06-22T06:38:58;100267.59;;;21.33;43.92
54666;BME280;40566;50.006;36.180;2023-06-22T06:43:59;100267.84;;;21.43;43.70
54666;BME280;40566;50.006;36.180;2023-06-22T06:49:00;100268.22;;;21.51;42.78
54666;BME280;40566;50.006;36.180;2023-06-22T06:54:01;100266.03;;;21.57;42.96
54666;BME280;40566;50.006;36.180;2023-06-22T06:59:06;100265.22;;;21.70;42.58
54666;BME280;40566;50.006;36.180;2023-06-22T07:04:06;100269.78;;;21.81;41.72
54666;BME280;40566;50.006;36.180;2023-06-22T07:09:07;100275.81;;;21.83;41.46
54666;BME280;40566;50.006;36.180;2023-06-22T07:14:07;100271.59;;;21.93;41.52
54666;BME280;40566;50.006;36.180;2023-06-22T07:19:08;100269.19;;;22.03;41.34
54666;BME280;40566;50.006;36.180;2023-06-22T07:24:08;100268.81;;;22.22;40.89
54666;BME280;40566;50.006;36.180;2023-06-22T07:29:09;100272.97;;;22.26;40.91
54666;BME280;40566;50.006;36.180;2023-06-22T07:34:10;100267.91;;;22.35;40.47
54666;BME280;40566;50.006;36.180;2023-06-22T07:39:10;100267.44;;;22.54;39.92
54666;BME280;40566;50.006;36.180;2023-06-22T07:44:12;100275.22;;;22.69;39.71
54666;BME280;40566;50.006;36.180;2023-06-22T07:49:12;100275.56;;;22.77;39.71
54666;BME280;40566;50.006;36.180;2023-06-22T07:54:13;100276.81;;;22.84;39.79
54666;BME280;40566;50.006;36.180;2023-06-22T07:59:16;100273.53;;;22.93;39.24
54666;BME280;40566;50.006;36.180;2023-06-22T08:04:16;100279.03;;;23.03;39.26
54666;BME280;40566;50.006;36.180;2023-06-22T08:09:17;100280.03;;;23.13;39.16
54666;BME280;40566;50.006;36.180;2023-06-22T08:14:17;100266.63;;;23.16;38.88
54666;BME280;40566;50.006;36.180;2023-06-22T08:19:18;100269.13;;;23.31;38.63
54666;BME280;40566;50.006;36.180;2023-06-22T08:24:18;100273.56;;;23.30;38.56
54666;BME280;40566;50.006;36.180;2023-06-22T08:29:19;100272.38;;;23.34;38.23
54666;BME280;40566;50.006;36.180;2023-06-22T08:34:20;100272.81;;;23.52;38.38
54666;BME280;40566;50.006;36.180;2023-06-22T08:39:23;100276.38;;;23.75;38.31
54666;BME280;40566;50.006;36.180;2023-06-22T08:44:24;100277.97;;;24.02;37.59
54666;BME280;40566;50.006;36.180;2023-06-22T08:49:24;100272.00;;;24.34;37.48
54666;BME280;40566;50.006;36.180;2023-06-22T08:54:25;100271.97;;;24.23;37.38
54666;BME280;40566;50.006;36.180;2023-06-22T08:59:26;100264.19;;;24.32;37.48
54666;BME280;40566;50.006;36.180;2023-06-22T09:04:26;100270.91;;;24.14;37.57
54666;BME280;40566;50.006;36.180;2023-06-22T09:09:27;100265.47;;;24.04;37.69
54666;BME280;40566;50.006;36.180;2023-06-22T09:14:27;100258.50;;;24.14;37.35
54666;BME280;40566;50.006;36.180;2023-06-22T09:19:28;100260.22;;;24.15;37.54
54666;BME280;40566;50.006;36.180;2023-06-22T09:24:29;100252.56;;;24.35;37.72
54666;BME280;40566;50.006;36.180;2023-06-22T09:29:29;100239.78;;;24.40;38.08
54666;BME280;40566;50.006;36.180;2023-06-22T09:34:33;100237.81;;;24.55;37.89
54666;BME280;40566;50.006;36.180;2023-06-22T09:39:34;100226.25;;;24.67;37.32
54666;BME280;40566;50.006;36.180;2023-06-22T09:44:34;100228.06;;;24.67;37.40
54666;BME280;40566;50.006;36.180;2023-06-22T09:49:35;100219.13;;;24.79;37.28
54666;BME280;40566;50.006;36.180;2023-06-22T09:54:35;100212.63;;;24.83;37.00
54666;BME280;40566;50.006;36.180;2023-06-22T09:59:36;100212.53;;;24.85;36.76
54666;BME280;40566;50.006;36.180;2023-06-22T10:04:37;100215.81;;;25.53;35.57
54666;BME280;40566;50.006;36.180;2023-06-22T10:09:37;100208.41;;;26.41;34.25
54666;BME280;40566;50.006;36.180;2023-06-22T10:14:38;100204.81;;;26.51;34.07
54666;BME280;40566;50.006;36.180;2023-06-22T10:19:39;100198.72;;;25.99;35.62
54666;BME280;40566;50.006;36.180;2023-06-22T10:24:41;100201.25;;;25.47;36.26
54666;BME280;40566;50.006;36.180;2023-06-22T10:29:46;100191.06;;;25.43;36.58
54666;BME280;40566;50.006;36.180;2023-06-22T10:34:46;100195.41;;;25.65;36.01
54666;BME280;40566;50.006;36.180;2023-06-22T10:39:47;100187.59;;;26.05;35.60
54666;BME280;40566;50.006;36.180;2023-06-22T10:44:47;100187.28;;;26.29;35.37
54666;BME280;40566;50.006;36.180;2023-06-22T10:49:48;100197.25;;;26.68;35.00
54666;BME280;40566;50.006;36.180;2023-06-22T10:54:49;100187.44;;;26.38;35.55
54666;BME280;40566;50.006;36.180;2023-06-22T10:59:49;100180.13;;;26.20;35.77
54666;BME280;40566;50.006;36.180;2023-06-22T11:04:50;100175.94;;;26.18;35.73
54666;BME280;40566;50.006;36.180;2023-06-22T11:09:51;100184.41;;;26.52;35.41
54666;BME280;40566;50.006;36.180;2023-06-22T11:14:51;100176.13;;;26.66;35.66
54666;BME280;40566;50.006;36.180;2023-06-22T11:19:52;100178.22;;;26.63;35.56
54666;BME280;40566;50.006;36.180;2023-06-22T11:24:52;100170.31;;;26.82;35.29
54666;BME280;40566;50.006;36.180;2023-06-22T11:29:53;100176.13;;;26.66;35.17
54666;BME280;40566;50.006;36.180;2023-06-22T11:34:53;100170.72;;;26.37;35.47
54666;BME280;40566;50.006;36.180;2023-06-22T11:39:54;100171.28;;;26.10;36.06
54666;BME280;40566;50.006;36.180;2023-06-22T11:44:55;100161.19;;;26.25;35.94
54666;BME280;40566;50.006;36.180;2023-06-22T11:49:55;100160.94;;;26.38;36.08
54666;BME280;40566;50.006;36.180;2023-06-22T11:54:56;100166.44;;;26.56;36.19
54666;BME280;40566;50.006;36.180;2023-06-22T11:59:57;100164.44;;;26.79;36.03
54666;BME280;40566;50.006;36.180;2023-06-22T12:04:57;100158.31;;;26.98;35.32
54666;BME280;40566;50.006;36.180;2023-06-22T12:09:58;100154.38;;;26.82;35.53
54666;BME280;40566;50.006;36.180;2023-06-22T12:14:59;100153.13;;;26.46;35.88
54666;BME280;40566;50.006;36.180;2023-06-22T12:20:06;100140.38;;;26.61;35.54
54666;BME280;40566;50.006;36.180;2023-06-22T12:25:08;100150.69;;;26.64;35.50
54666;BME280;40566;50.006;36.180;2023-06-22T12:30:09;100136.03;;;26.69;35.64
54666;BME280;40566;50.006;36.180;2023-06-22T12:35:09;100136.06;;;26.99;35.71
54666;BME280;40566;50.006;36.180;2023-06-22T12:40:14;100137.03;;;27.17;35.27
54666;BME280;40566;50.006;36.180;2023-06-22T12:45:14;100134.81;;;27.13;35.44
54666;BME280;40566;50.006;36.180;2023-06-22T12:50:16;100123.78;;;27.27;35.60
54666;BME280;40566;50.006;36.180;2023-06-22T12:55:16;100125.31;;;27.20;35.39
54666;BME280;40566;50.006;36.180;2023-06-22T13:00:17;100122.81;;;27.18;35.88
54666;BME280;40566;50.006;36.180;2023-06-22T13:05:18;100119.31;;;26.88;36.10
54666;BME280;40566;50.006;36.180;2023-06-22T13:10:19;100126.84;;;26.93;35.80
54666;BME280;40566;50.006;36.180;2023-06-22T13:15:20;100121.66;;;27.21;35.79
54666;BME280;40566;50.006;36.180;2023-06-22T13:20:20;100122.66;;;27.59;34.96
54666;BME280;40566;50.006;36.180;2023-06-22T13:25:21;100114.94;;;28.40;33.63
54666;BME280;40566;50.006;36.180;2023-06-22T13:30:24;100118.88;;;28.64;33.38
54666;BME280;40566;50.006;36.180;2023-06-22T13:35:24;100105.09;;;28.68;33.53
54666;BME280;40566;50.006;36.180;2023-06-22T13:40:25;100100.44;;;27.97;34.11
54666;BME280;40566;50.006;36.180;2023-06-22T13:45:26;100101.03;;;27.24;35.63
54666;BME280;40566;50.006;36.180;2023-06-22T13:50:26;100084.81;;;27.27;35.33
54666;BME280;40566;50.006;36.180;2023-06-22T13:55:27;100090.94;;;27.08;35.32
54666;BME280;40566;50.006;36.180;2023-06-22T14:00:27;100077.78;;;26.78;36.22
54666;BME280;40566;50.006;36.180;2023-06-22T14:05:28;100074.66;;;26.43;36.57
54666;BME280;40566;50.006;36.180;2023-06-22T14:10:29;100063.47;;;26.30;36.61
54666;BME280;40566;50.006;36.180;2023-06-22T14:15:29;100063.75;;;26.27;36.85
54666;BME280;40566;50.006;36.180;2023-06-22T14:20:30;100060.69;;;26.31;36.74
54666;BME280;40566;50.006;36.180;2023-06-22T14:25:30;100057.00;;;26.13;36.97
54666;BME280;40566;50.006;36.180;2023-06-22T14:30:31;100058.09;;;26.10;36.90
54666;BME280;40566;50.006;36.180;2023-06-22T14:35:31;100052.97;;;26.19;37.13
54666;BME280;40566;50.006;36.180;2023-06-22T14:40:32;100054.53;;;26.21;37.15
54666;BME280;40566;50.006;36.180;2023-06-22T14:45:33;100047.53;;;26.20;37.44
54666;BME280;40566;50.006;36.180;2023-06-22T14:50:33;100044.75;;;26.22;37.21
54666;BME280;40566;50.006;36.180;2023-06-22T14:55:34;100055.03;;;26.05;37.51
54666;BME280;40566;50.006;36.180;2023-06-22T15:00:35;100047.91;;;26.06;37.16
54666;BME280;40566;50.006;36.180;2023-06-22T15:05:35;100050.66;;;25.95;37.58
54666;BME280;40566;50.006;36.180;2023-06-22T15:10:37;100050.13;;;25.91;38.35
54666;BME280;40566;50.006;36.180;2023-06-22T15:15:38;100052.41;;;25.84;38.06
54666;BME280;40566;50.006;36.180;2023-06-22T15:20:39;100049.13;;;25.71;38.28
54666;BME280;40566;50.006;36.180;2023-06-22T15:25:39;100043.28;;;25.67;38.59
54666;BME280;40566;50.006;36.180;2023-06-22T15:30:40;100041.16;;;25.61;38.63
54666;BME280;40566;50.006;36.180;2023-06-22T15:35:41;100040.00;;;25.54;38.61
54666;BME280;40566;50.006;36.180;2023-06-22T15:40:42;100048.50;;;25.48;38.64
54666;BME280;40566;50.006;36.180;2023-06-22T15:45:43;100038.53;;;25.40;38.62
54666;BME280;40566;50.006;36.180;2023-06-22T15:50:43;100047.72;;;25.36;38.99
54666;BME280;40566;50.006;36.180;2023-06-22T15:55:44;100049.78;;;25.32;39.20
54666;BME280;40566;50.006;36.180;2023-06-22T16:00:47;100043.19;;;25.27;39.62
54666;BME280;40566;50.006;36.180;2023-06-22T16:05:49;100037.31;;;25.23;39.72
54666;BME280;40566;50.006;36.180;2023-06-22T16:10:49;100037.81;;;25.17;39.76
54666;BME280;40566;50.006;36.180;2023-06-22T16:15:50;100046.25;;;25.11;39.83
54666;BME280;40566;50.006;36.180;2023-06-22T16:20:50;100043.44;;;25.03;39.80
54666;BME280;40566;50.006;36.180;2023-06-22T16:25:51;100038.66;;;24.97;39.97
54666;BME280;40566;50.006;36.180;2023-06-22T16:30:52;100041.81;;;24.90;40.34
54666;BME280;40566;50.006;36.180;2023-06-22T16:35:53;100041.47;;;24.84;40.46
54666;BME280;40566;50.006;36.180;2023-06-22T16:40:53;100044.50;;;24.79;40.87
54666;BME280;40566;50.006;36.180;2023-06-22T16:45:55;100038.03;;;24.72;41.09
54666;BME280;40566;50.006;36.180;2023-06-22T16:50:56;100029.75;;;24.65;41.51
54666;BME280;40566;50.006;36.180;2023-06-22T16:55:57;100028.84;;;24.55;42.01
54666;BME280;40566;50.006;36.180;2023-06-22T17:00:58;100031.38;;;24.45;41.96
54666;BME280;40566;50.006;36.180;2023-06-22T17:06:01;100011.94;;;24.35;42.40
54666;BME280;40566;50.006;36.180;2023-06-22T17:11:03;100016.63;;;24.20;42.75
54666;BME280;40566;50.006;36.180;2023-06-22T17:16:05;100012.22;;;24.09;42.74
54666;BME280;40566;50.006;36.180;2023-06-22T17:21:20;100005.25;;;23.97;43.29
54666;BME280;40566;50.006;36.180;2023-06-22T17:26:21;100010.69;;;23.84;43.83
54666;BME280;40566;50.006;36.180;2023-06-22T17:31:22;100019.56;;;23.72;44.14
54666;BME280;40566;50.006;36.180;2023-06-22T17:36:25;100013.44;;;23.60;44.49
54666;BME280;40566;50.006;36.180;2023-06-22T17:41:32;100002.88;;;23.49;44.84
54666;BME280;40566;50.006;36.180;2023-06-22T17:46:37;100007.28;;;23.37;45.29
54666;BME280;40566;50.006;36.180;2023-06-22T17:51:42;100010.03;;;23.24;45.56
54666;BME280;40566;50.006;36.180;2023-06-22T17:56:48;100008.31;;;23.12;45.98
54666;BME280;40566;50.006;36.180;2023-06-22T18:01:50;100029.41;;;23.01;46.28
54666;BME280;40566;50.006;36.180;2023-06-22T18:06:51;100023.81;;;22.92;46.58
54666;BME280;40566;50.006;36.180;2023-06-22T18:11:54;100020.94;;;22.84;46.84
54666;BME280;40566;50.006;36.180;2023-06-22T18:16:58;100021.63;;;22.75;46.91
54666;BME280;40566;50.006;36.180;2023-06-22T18:21:59;100038.59;;;22.71;47.07
54666;BME280;40566;50.006;36.180;2023-06-22T18:27:00;100026.75;;;22.65;47.17
54666;BME280;40566;50.006;36.180;2023-06-22T18:32:02;100038.34;;;22.63;47.29
54666;BME280;40566;50.006;36.180;2023-06-22T18:37:05;100026.00;;;22.63;47.29
54666;BME280;40566;50.006;36.180;2023-06-22T18:42:10;100026.13;;;22.62;47.35
54666;BME280;40566;50.006;36.180;2023-06-22T18:47:12;100035.22;;;22.57;47.35
54666;BME280;40566;50.006;36.180;2023-06-22T18:52:25;100030.03;;;22.56;47.47
54666;BME280;40566;50.006;36.180;2023-06-22T18:57:28;100028.50;;;22.53;47.56
54666;BME280;40566;50.006;36.180;2023-06-22T19:13:18;100019.22;;;22.48;47.94
54666;BME280;40566;50.006;36.180;2023-06-22T19:18:22;100023.97;;;22.43;47.95
54666;BME280;40566;50.006;36.180;2023-06-22T19:23:36;100034.63;;;22.41;48.10
54666;BME280;40566;50.006;36.180;2023-06-22T19:28:48;100022.63;;;22.37;48.19
54666;BME280;40566;50.006;36.180;2023-06-22T19:33:53;100015.91;;;22.33;48.36
54666;BME280;40566;50.006;36.180;2023-06-22T19:38:59;100029.84;;;22.22;48.60
54666;BME280;40566;50.006;36.180;2023-06-22T19:44:00;100025.13;;;22.14;48.55
54666;BME280;40566;50.006;36.180;2023-06-22T19:49:01;100039.47;;;22.10;48.54
54666;BME280;40566;50.006;36.180;2023-06-22T19:54:08;100024.81;;;22.06;48.83
54666;BME280;40566;50.006;36.180;2023-06-22T19:59:13;100029.34;;;22.04;48.66
54666;BME280;40566;50.006;36.180;2023-06-22T20:04:15;100041.38;;;21.95;49.00
54666;BME280;40566;50.006;36.180;2023-06-22T20:09:16;100032.00;;;21.91;49.07
54666;BME280;40566;50.006;36.180;2023-06-22T20:14:19;100020.09;;;21.86;48.96
54666;BME280;40566;50.006;36.180;2023-06-22T20:19:20;100032.78;;;21.81;49.19
54666;BME280;40566;50.006;36.180;2023-06-22T20:24:21;100031.50;;;21.73;49.12
54666;BME280;40566;50.006;36.180;2023-06-22T20:29:26;100036.56;;;21.64;49.31
54666;BME280;40566;50.006;36.180;2023-06-22T20:34:26;100031.84;;;21.56;49.59
54666;BME280;40566;50.006;36.180;2023-06-22T20:39:27;100037.75;;;21.47;49.74
54666;BME280;40566;50.006;36.180;2023-06-22T20:44:27;100041.50;;;21.43;49.76
54666;BME280;40566;50.006;36.180;2023-06-22T20:49:28;100035.81;;;21.36;50.00
54666;BME280;40566;50.006;36.180;2023-06-22T20:54:29;100043.38;;;21.28;50.14
54666;BME280;40566;50.006;36.180;2023-06-22T20:59:29;100042.97;;;21.21;50.30
54666;BME280;40566;50.006;36.180;2023-06-22T21:04:30;100044.63;;;21.09;50.46
54666;BME280;40566;50.006;36.180;2023-06-22T21:09:30;100038.19;;;21.00;50.60
54666;BME280;40566;50.006;36.180;2023-06-22T21:14:31;100031.75;;;20.92;50.97
54666;BME280;40566;50.006;36.180;2023-06-22T21:19:32;100034.97;;;20.83;51.13
54666;BME280;40566;50.006;36.180;2023-06-22T21:24:32;100033.59;;;20.77;51.31
54666;BME280;40566;50.006;36.180;2023-06-22T21:29:33;100032.50;;;20.67;51.57
54666;BME280;40566;50.006;36.180;2023-06-22T21:34:33;100021.63;;;20.58;51.63
54666;BME280;40566;50.006;36.180;2023-06-22T21:39:34;100019.41;;;20.52;51.88
54666;BME280;40566;50.006;36.180;2023-06-22T21:44:35;100012.66;;;20.48;51.97
54666;BME280;40566;50.006;36.180;2023-06-22T21:49:54;100013.81;;;20.44;52.01
54666;BME280;40566;50.006;36.180;2023-06-22T21:54:57;100011.19;;;20.44;51.92
54666;BME280;40566;50.006;36.180;2023-06-22T21:59:58;100006.19;;;20.39;51.77
54666;BME280;40566;50.006;36.180;2023-06-22T22:04:58;100018.25;;;20.29;52.19
54666;BME280;40566;50.006;36.180;2023-06-22T22:09:59;100020.97;;;20.28;52.19
54666;BME280;40566;50.006;36.180;2023-06-22T22:14:59;100017.16;;;20.19;52.13
54666;BME280;40566;50.006;36.180;2023-06-22T22:20:01;100003.56;;;20.12;52.39
54666;BME280;40566;50.006;36.180;2023-06-22T22:25:02;100008.19;;;20.09;52.52
54666;BME280;40566;50.006;36.180;2023-06-22T22:30:03;99999.44;;;20.08;52.51
54666;BME280;40566;50.006;36.180;2023-06-22T22:35:05;99991.09;;;20.01;52.58
54666;BME280;40566;50.006;36.180;2023-06-22T22:40:08;99986.81;;;20.00;52.35
54666;BME280;40566;50.006;36.180;2023-06-22T22:45:10;99989.06;;;19.92;52.61
54666;BME280;40566;50.006;36.180;2023-06-22T22:50:11;99983.34;;;19.86;52.80
54666;BME280;40566;50.006;36.180;2023-06-22T22:55:12;99974.72;;;19.84;52.72
54666;BME280;40566;50.006;36.180;2023-06-22T23:00:14;99960.28;;;19.76;52.91
54666;BME280;40566;50.006;36.180;2023-06-22T23:05:16;99964.16;;;19.71;53.17
54666;BME280;40566;50.006;36.180;2023-06-22T23:10:17;99955.63;;;19.67;53.13
54666;BME280;40566;50.006;36.180;2023-06-22T23:15:17;99955.25;;;19.59;53.37
54666;BME280;40566;50.006;36.180;2023-06-22T23:20:18;99956.34;;;19.55;53.33
54666;BME280;40566;50.006;36.180;2023-06-22T23:25:19;99957.69;;;19.48;53.30
54666;BME280;40566;50.006;36.180;2023-06-22T23:30:19;99956.34;;;19.40;53.84
54666;BME280;40566;50.006;36.180;2023-06-22T23:35:20;99950.38;;;19.38;53.65
54666;BME280;40566;50.006;36.180;2023-06-22T23:40:21;99949.44;;;19.39;53.52
54666;BME280;40566;50.006;36.180;2023-06-22T23:45:23;99943.44;;;19.37;53.44
54666;BME280;40566;50.006;36.180;2023-06-22T23:50:23;99939.97;;;19.37;53.30
54666;BME280;40566;50.006;36.180;2023-06-22T23:55:24;99945.31;;;19.35;53.47
